»·PEaware :: NWA1187 KOAK-KSNA

NWA1187 :: KOAK-KSNA

FLIGHT INFORMATION

Flight Status: Arrived
Operator:
Northwest Airlines
More flights by this operator :: More flights under this callsign
Pilot: Anonymous 12254 (12254)
Aircraft: SAAB 340
(SF34)
More flights by this aircraft type
Origin: KOAK Metro Oakland Intl
United States
Destination: KSNA John Wayne-Orange Co
United States
More flights between these airports :: More routes between these airports
Route: +SKYL9 FLW TANDY5
File this flight plan on PilotEdge
Remarks:
Altitude:
(Current/Filed)
23,000ft
Speed:
(Current/Filed)
200kts
Departed: 20-Apr-19 06:33 PM
Arrived: 20-Apr-19 08:13 PM
Distance/Time
Traveled:
322nm/1:39
Distance/Time
To Go:
Arrived

Flight Plot

Page will automatically refresh every two minutes.

Flight plan parsing failed; only flown route is shown


Map Options




Map Legend


Flown Route
Filed Route
Departure Airport
Arrival Airport
Navaid (VOR, NDB)
Fix

Horizontal Profiles

Position Reports

Time Latitude Longitude Heading Altitude Ground
Speed
20-Apr-19 17:52 37.709782 -122.212986 149 8ft 0kts
20-Apr-19 17:53 37.709612 -122.213613 261 8ft 4kts
20-Apr-19 17:54 37.709565 -122.214204 220 8ft 0kts
20-Apr-19 17:55 37.709565 -122.214204 220 8ft 0kts
20-Apr-19 17:56 37.709565 -122.214204 220 8ft 0kts
20-Apr-19 17:57 37.709565 -122.214204 220 8ft 0kts
20-Apr-19 17:58 37.709565 -122.214204 220 8ft 0kts
20-Apr-19 17:59 37.709565 -122.214204 220 8ft 0kts
20-Apr-19 18:00 37.709565 -122.214204 220 8ft 0kts
20-Apr-19 18:01 37.709565 -122.214204 220 8ft 0kts
20-Apr-19 18:02 37.709565 -122.214204 220 8ft 0kts
20-Apr-19 18:03 37.709565 -122.214204 220 8ft 0kts
20-Apr-19 18:04 37.709565 -122.214204 220 8ft 0kts
20-Apr-19 18:05 37.709565 -122.214204 220 8ft 0kts
20-Apr-19 18:07 37.709565 -122.214204 220 8ft 0kts
20-Apr-19 18:08 37.709565 -122.214204 220 8ft 0kts
20-Apr-19 18:09 37.709565 -122.214204 220 8ft 0kts
20-Apr-19 18:10 37.709565 -122.214204 220 8ft 0kts
20-Apr-19 18:11 37.709565 -122.214204 220 8ft 0kts
20-Apr-19 18:12 37.709565 -122.214204 220 8ft 0kts
20-Apr-19 18:13 37.709565 -122.214204 220 8ft 0kts
20-Apr-19 18:14 37.709565 -122.214204 220 8ft 0kts
20-Apr-19 18:15 37.709565 -122.214204 220 8ft 0kts
20-Apr-19 18:16 37.709565 -122.214204 220 8ft 0kts
20-Apr-19 18:17 37.709565 -122.214204 220 8ft 0kts
20-Apr-19 18:18 37.709565 -122.214204 220 8ft 0kts
20-Apr-19 18:19 37.709565 -122.214204 220 8ft 0kts
20-Apr-19 18:20 37.709565 -122.214204 220 8ft 0kts
20-Apr-19 18:21 37.709565 -122.214204 220 8ft 0kts
20-Apr-19 18:22 37.709565 -122.214204 220 8ft 0kts
20-Apr-19 18:23 37.709565 -122.214204 220 8ft 0kts
20-Apr-19 18:24 37.709565 -122.214204 220 8ft 0kts
20-Apr-19 18:25 37.709565 -122.214204 220 8ft 0kts
20-Apr-19 18:26 37.709565 -122.214204 220 8ft 0kts
20-Apr-19 18:27 37.709565 -122.214204 220 8ft 0kts
20-Apr-19 18:28 37.708888 -122.215643 220 8ft 12kts
20-Apr-19 18:29 37.704593 -122.215207 130 8ft 28kts
20-Apr-19 18:30 37.702324 -122.213503 209 7ft 0kts
20-Apr-19 18:31 37.701806 -122.214705 298 8ft 11kts
20-Apr-19 18:32 37.721799 -122.243141 306 611ft 157kts
20-Apr-19 18:33 37.750285 -122.288763 303 1984ft 184kts
20-Apr-19 18:34 37.781232 -122.336480 303 2404ft 161kts
20-Apr-19 18:35 37.807748 -122.377478 303 3283ft 139kts
20-Apr-19 18:36 37.801844 -122.413348 214 4646ft 165kts
20-Apr-19 18:37 37.755703 -122.442291 213 6027ft 200kts
20-Apr-19 18:38 37.713983 -122.464460 177 7027ft 227kts
20-Apr-19 18:39 37.651331 -122.465035 189 8378ft 226kts
20-Apr-19 18:40 37.598023 -122.442521 137 10365ft 212kts
20-Apr-19 18:41 37.557456 -122.394084 140 12381ft 190kts
20-Apr-19 18:42 37.521396 -122.351775 141 14286ft 167kts
20-Apr-19 18:43 37.486444 -122.310911 142 15619ft 174kts
20-Apr-19 18:44 37.449829 -122.268132 142 16830ft 182kts
20-Apr-19 18:45 37.411317 -122.223211 142 18182ft 197kts
20-Apr-19 18:46 37.369828 -122.174870 142 19602ft 209kts
20-Apr-19 18:47 37.325388 -122.123184 141 21040ft 224kts
20-Apr-19 18:48 37.278936 -122.069231 142 22444ft 230kts
20-Apr-19 18:49 37.229322 -122.011796 141 23058ft 269kts
20-Apr-19 18:50 37.169905 -121.943035 140 23040ft 306kts
20-Apr-19 18:51 37.106090 -121.869372 140 23029ft 312kts
20-Apr-19 18:52 37.042122 -121.795731 140 23030ft 313kts
20-Apr-19 18:53 36.977719 -121.721745 140 23032ft 316kts
20-Apr-19 18:54 36.912646 -121.647035 140 23039ft 318kts
20-Apr-19 18:55 36.847517 -121.572325 140 23043ft 318kts
20-Apr-19 18:57 36.782381 -121.497668 140 23048ft 319kts
20-Apr-19 18:58 36.716464 -121.423496 143 23049ft 318kts
20-Apr-19 18:59 36.647225 -121.354987 144 23050ft 318kts
20-Apr-19 19:00 36.577997 -121.286990 145 23042ft 317kts
20-Apr-19 19:01 36.508664 -121.219053 145 23043ft 316kts
20-Apr-19 19:02 36.439652 -121.151549 146 23042ft 316kts
20-Apr-19 19:03 36.370691 -121.084298 146 23023ft 314kts
20-Apr-19 19:04 36.302106 -121.017563 147 22986ft 312kts
20-Apr-19 19:05 36.233957 -120.951405 147 22964ft 308kts
20-Apr-19 19:06 36.166665 -120.886237 147 22964ft 306kts
20-Apr-19 19:07 36.099685 -120.821518 147 22965ft 305kts
20-Apr-19 19:08 36.032914 -120.757123 147 22965ft 304kts
20-Apr-19 19:09 35.965757 -120.692505 147 22966ft 304kts
20-Apr-19 19:10 35.899068 -120.628461 147 22967ft 304kts
20-Apr-19 19:11 35.832008 -120.564237 147 22966ft 304kts
20-Apr-19 19:12 35.765091 -120.500278 147 22967ft 305kts
20-Apr-19 19:13 35.697723 -120.436029 147 22967ft 305kts
20-Apr-19 19:14 35.630635 -120.372175 147 22968ft 305kts
20-Apr-19 19:15 35.563492 -120.308390 148 22969ft 306kts
20-Apr-19 19:16 35.495670 -120.244165 148 22976ft 308kts
20-Apr-19 19:17 35.427537 -120.179724 148 23004ft 308kts
20-Apr-19 19:18 35.359349 -120.115409 148 23032ft 309kts
20-Apr-19 19:19 35.291039 -120.051091 148 23036ft 310kts
20-Apr-19 19:20 35.222376 -119.986615 148 23039ft 310kts
20-Apr-19 19:21 35.153703 -119.922252 148 23048ft 310kts
20-Apr-19 19:21 35.096509 -119.868748 147 22935ft 307kts
20-Apr-19 19:23 35.020695 -119.788740 144 21885ft 311kts
20-Apr-19 19:23 34.965995 -119.730792 144 21078ft 313kts
20-Apr-19 19:25 34.889257 -119.649682 143 19945ft 311kts
20-Apr-19 19:25 34.835089 -119.592547 143 19122ft 307kts
20-Apr-19 19:26 34.770690 -119.524768 143 18156ft 303kts
20-Apr-19 19:28 34.697515 -119.447917 143 17246ft 295kts
20-Apr-19 19:28 34.645879 -119.393809 143 16601ft 292kts
20-Apr-19 19:30 34.574054 -119.318692 143 15681ft 291kts
20-Apr-19 19:30 34.523083 -119.265490 143 14997ft 286kts
20-Apr-19 19:31 34.464501 -119.204426 143 14689ft 269kts
20-Apr-19 19:32 34.408275 -119.145961 143 14468ft 263kts
20-Apr-19 19:33 34.353090 -119.088684 143 14260ft 260kts
20-Apr-19 19:34 34.298276 -119.031890 143 14059ft 259kts
20-Apr-19 19:35 34.243875 -118.975591 144 13998ft 254kts
20-Apr-19 19:36 34.190596 -118.920582 144 14002ft 250kts
20-Apr-19 19:37 34.137661 -118.866024 145 14006ft 249kts
20-Apr-19 19:38 34.084661 -118.811490 145 14010ft 248kts
20-Apr-19 19:39 34.030193 -118.762313 167 14025ft 236kts
20-Apr-19 19:40 33.967664 -118.738572 170 14011ft 235kts
20-Apr-19 19:41 33.904738 -118.715587 170 14011ft 235kts
20-Apr-19 19:42 33.841941 -118.692713 170 14011ft 235kts
20-Apr-19 19:43 33.779094 -118.669860 170 14011ft 235kts
20-Apr-19 19:44 33.716188 -118.647310 171 14011ft 235kts
20-Apr-19 19:45 33.652952 -118.624982 171 14011ft 236kts
20-Apr-19 19:46 33.589117 -118.598180 152 13356ft 261kts
20-Apr-19 19:47 33.529919 -118.549428 150 12082ft 256kts
20-Apr-19 19:48 33.511437 -118.472897 82 10720ft 263kts
20-Apr-19 19:49 33.519511 -118.386240 82 9243ft 258kts
20-Apr-19 19:50 33.527683 -118.303136 83 7768ft 252kts
20-Apr-19 19:51 33.536476 -118.220683 82 6262ft 247kts
20-Apr-19 19:52 33.545805 -118.139932 82 4999ft 230kts
20-Apr-19 19:53 33.554262 -118.071292 82 4989ft 191kts
20-Apr-19 19:54 33.562025 -118.010906 82 4995ft 176kts
20-Apr-19 19:55 33.570161 -117.953397 63 4987ft 173kts
20-Apr-19 19:56 33.610951 -117.928985 16 5000ft 166kts
20-Apr-19 19:57 33.654403 -117.910048 16 5000ft 165kts
20-Apr-19 19:58 33.699431 -117.890622 16 5005ft 178kts
20-Apr-19 19:59 33.747073 -117.870309 16 5000ft 182kts
20-Apr-19 20:00 33.795009 -117.850016 16 4999ft 182kts
20-Apr-19 20:01 33.843231 -117.829874 16 4996ft 183kts
20-Apr-19 20:02 33.891466 -117.809670 16 4993ft 183kts
20-Apr-19 20:03 33.939760 -117.789277 16 4991ft 184kts
20-Apr-19 20:04 33.966901 -117.749267 127 4800ft 187kts
20-Apr-19 20:05 33.917083 -117.738340 182 3997ft 194kts
20-Apr-19 20:06 33.867410 -117.745942 192 3987ft 173kts
20-Apr-19 20:07 33.819376 -117.758780 213 3092ft 179kts
20-Apr-19 20:08 33.778812 -117.790109 190 2385ft 147kts
20-Apr-19 20:09 33.742938 -117.809895 235 3658ft 181kts
20-Apr-19 20:10 33.706803 -117.849346 206 708ft 170kts
20-Apr-19 20:11 33.675083 -117.869210 207 60ft 67kts
20-Apr-19 20:12 33.669170 -117.871605 124 60ft 0kts
20-Apr-19 20:13 33.669647 -117.870390 41 60ft 0kts

Navigation Log

Ident Type
Flight plan parsing failed, navigation log unavailable